createdAt,value
2019-02-23T00:02:20.854Z,99.90
2019-02-23T00:04:49.927Z,99.90
2019-02-23T00:07:19.127Z,99.90
2019-02-23T00:09:48.225Z,99.90
2019-02-23T00:12:17.109Z,99.90
2019-02-23T00:14:46.038Z,99.90
2019-02-23T00:17:15.022Z,99.90
2019-02-23T00:19:43.967Z,99.90
2019-02-23T00:22:13.144Z,99.90
2019-02-23T00:24:42.100Z,99.90
2019-02-23T00:27:11.115Z,99.90
2019-02-23T00:29:40.082Z,99.90
2019-02-23T00:32:09.008Z,99.90
2019-02-23T00:34:38.200Z,99.90
2019-02-23T00:37:07.211Z,99.90
2019-02-23T00:39:36.244Z,99.90
2019-02-23T00:42:05.316Z,99.90
2019-02-23T00:44:34.232Z,99.90
2019-02-23T00:47:03.294Z,99.90
2019-02-23T00:49:36.223Z,99.90
2019-02-23T00:52:03.089Z,99.90
2019-02-23T00:54:32.141Z,99.90
2019-02-23T00:57:01.456Z,99.90
2019-02-23T00:59:30.470Z,99.90
2019-02-23T01:01:59.432Z,99.90
2019-02-23T01:04:28.413Z,99.90
2019-02-23T01:06:57.385Z,99.90
2019-02-23T01:09:26.451Z,99.90
2019-02-23T01:11:55.332Z,99.90
2019-02-23T01:14:24.293Z,99.90
2019-02-23T01:16:53.373Z,99.90
2019-02-23T01:19:22.375Z,99.90
2019-02-23T01:21:51.440Z,99.90
2019-02-23T01:24:20.369Z,99.90
2019-02-23T01:26:49.337Z,99.90
2019-02-23T01:29:18.412Z,99.90
2019-02-23T01:31:47.440Z,99.90
2019-02-23T01:36:45.246Z,99.90
2019-02-23T01:39:14.338Z,99.90
2019-02-23T01:41:43.432Z,99.90
2019-02-23T01:44:12.399Z,99.90
2019-02-23T01:46:41.544Z,99.90
2019-02-23T01:49:10.577Z,99.90
2019-02-23T01:51:39.582Z,99.90
2019-02-23T01:54:08.623Z,99.90
2019-02-23T01:56:37.738Z,99.90
2019-02-23T01:59:06.908Z,99.90
2019-02-23T02:01:35.992Z,99.90
2019-02-23T02:04:04.966Z,99.90
2019-02-23T02:06:34.808Z,99.90
2019-02-23T02:09:04.784Z,99.90
2019-02-23T02:11:33.805Z,99.90
2019-02-23T02:14:02.759Z,99.90
2019-02-23T02:16:31.909Z,99.90
2019-02-23T02:19:00.953Z,99.90
2019-02-23T02:21:30.010Z,99.90
2019-02-23T02:23:59.114Z,99.90
2019-02-23T02:26:28.103Z,99.90
2019-02-23T02:28:57.065Z,99.90
2019-02-23T02:31:25.938Z,99.90
2019-02-23T02:34:04.453Z,99.90
2019-02-23T02:36:33.467Z,99.90
2019-02-23T02:39:02.747Z,99.90
2019-02-23T02:41:31.820Z,99.90
2019-02-23T02:44:00.737Z,99.90
2019-02-23T02:46:29.620Z,99.90
2019-02-23T02:48:58.713Z,99.90
2019-02-23T02:51:27.670Z,99.90
2019-02-23T02:53:56.648Z,99.90
2019-02-23T02:56:25.613Z,99.90
2019-02-23T02:58:54.764Z,99.90
2019-02-23T03:01:23.714Z,99.90
2019-02-23T03:03:52.819Z,99.90
2019-02-23T03:11:18.780Z,99.90
2019-02-23T03:16:16.550Z,99.90
2019-02-23T03:18:45.640Z,99.90
2019-02-23T03:21:14.628Z,99.90
2019-02-23T03:23:43.704Z,99.90
2019-02-23T03:26:12.725Z,99.90
2019-02-23T03:28:43.237Z,99.90
2019-02-23T03:31:12.285Z,99.90
2019-02-23T03:33:41.382Z,99.90
2019-02-23T03:36:10.330Z,99.90
2019-02-23T03:38:39.300Z,99.90
2019-02-23T03:41:08.321Z,99.90
2019-02-23T03:43:37.389Z,99.90
2019-02-23T03:46:06.287Z,99.90
2019-02-23T03:48:35.309Z,99.90
2019-02-23T03:51:04.349Z,99.90
2019-02-23T03:53:33.247Z,99.90
2019-02-23T03:56:02.939Z,99.90
2019-02-23T03:58:31.948Z,99.90
2019-02-23T04:01:00.804Z,99.90
2019-02-23T04:03:29.866Z,99.90
2019-02-23T04:05:58.902Z,99.90
2019-02-23T04:08:27.895Z,99.90
2019-02-23T04:10:56.920Z,99.90
2019-02-23T04:13:25.834Z,99.90
2019-02-23T04:15:54.786Z,99.90
2019-02-23T04:18:23.870Z,99.90
2019-02-23T04:21:01.379Z,99.90
2019-02-23T04:23:23.483Z,99.90
2019-02-23T04:25:54.231Z,99.90
2019-02-23T04:28:23.205Z,99.90
2019-02-23T04:33:20.850Z,99.90
2019-02-23T04:35:49.979Z,99.90
2019-02-23T04:38:18.926Z,99.90
2019-02-23T04:40:48.023Z,99.90
2019-02-23T04:43:17.252Z,99.90
2019-02-23T04:45:46.227Z,99.90
2019-02-23T04:48:15.616Z,99.90
2019-02-23T04:50:44.848Z,99.90
2019-02-23T04:53:13.837Z,99.90
2019-02-23T04:55:42.823Z,99.90
2019-02-23T04:58:11.745Z,99.90
2019-02-23T05:00:40.657Z,99.90
2019-02-23T05:03:09.965Z,99.90
2019-02-23T05:05:38.929Z,99.90
2019-02-23T05:08:07.849Z,99.90
2019-02-23T05:10:36.846Z,99.90
2019-02-23T05:13:05.964Z,99.90
2019-02-23T05:15:35.052Z,99.90
2019-02-23T05:18:04.028Z,99.90
2019-02-23T05:20:33.093Z,99.90
2019-02-23T05:23:02.029Z,99.90
2019-02-23T05:25:32.312Z,99.90
2019-02-23T05:28:01.282Z,99.90
2019-02-23T05:30:30.340Z,99.90
2019-02-23T05:32:59.364Z,99.90
2019-02-23T05:35:28.347Z,99.90
2019-02-23T05:37:57.585Z,99.90
2019-02-23T05:40:26.548Z,99.90
2019-02-23T05:43:00.981Z,99.90
2019-02-23T05:45:26.367Z,99.90
2019-02-23T05:47:55.368Z,99.90
2019-02-23T05:50:24.354Z,99.90
2019-02-23T05:52:53.272Z,99.90
2019-02-23T05:55:22.290Z,99.90
2019-02-23T05:57:51.237Z,99.90
2019-02-23T06:00:20.199Z,99.90
2019-02-23T06:02:49.122Z,99.90
2019-02-23T06:05:18.024Z,99.90
2019-02-23T06:10:16.629Z,99.90
2019-02-23T06:12:45.658Z,99.90
2019-02-23T06:15:14.679Z,99.90
2019-02-23T06:17:43.705Z,99.90
2019-02-23T06:20:12.658Z,99.90
2019-02-23T06:22:41.693Z,99.90
2019-02-23T06:25:10.713Z,99.90
2019-02-23T06:27:39.652Z,99.90
2019-02-23T06:30:11.474Z,99.90
2019-02-23T06:32:40.438Z,99.90
2019-02-23T06:35:09.729Z,99.90
2019-02-23T06:37:38.848Z,99.90
2019-02-23T06:40:08.416Z,99.90
2019-02-23T06:42:37.314Z,99.90
2019-02-23T06:45:07.096Z,99.90
2019-02-23T06:47:36.068Z,99.90
2019-02-23T06:50:05.192Z,99.90
2019-02-23T06:52:34.297Z,99.90
2019-02-23T06:55:03.357Z,99.90
2019-02-23T06:57:33.561Z,99.90
2019-02-23T07:00:02.668Z,99.90
2019-02-23T07:02:31.741Z,99.90
2019-02-23T07:05:00.781Z,99.90
2019-02-23T07:07:29.785Z,99.90
2019-02-23T07:09:58.784Z,99.90
2019-02-23T07:12:27.871Z,99.90
2019-02-23T07:14:56.819Z,99.90
2019-02-23T07:17:25.788Z,99.90
2019-02-23T07:19:54.912Z,99.90
2019-02-23T07:22:23.946Z,99.90
2019-02-23T07:24:53.010Z,99.90
2019-02-23T07:29:50.596Z,99.90
2019-02-23T07:32:19.665Z,99.90
2019-02-23T07:34:48.708Z,99.90
2019-02-23T07:37:18.069Z,99.90
2019-02-23T07:39:47.213Z,99.90
2019-02-23T07:42:16.466Z,99.90
2019-02-23T07:44:45.543Z,99.90
2019-02-23T07:47:14.512Z,99.90
2019-02-23T07:49:43.662Z,99.90
2019-02-23T07:52:12.767Z,99.90
2019-02-23T07:54:41.772Z,99.90
2019-02-23T07:57:10.644Z,99.90
2019-02-23T07:59:39.797Z,99.90
2019-02-23T08:02:08.808Z,99.90
2019-02-23T08:04:37.793Z,99.90
2019-02-23T08:07:06.893Z,99.90
2019-02-23T08:09:36.189Z,99.90
2019-02-23T08:12:05.217Z,99.90
2019-02-23T08:14:34.181Z,99.90
2019-02-23T08:17:03.073Z,99.90
2019-02-23T08:19:32.312Z,99.90
2019-02-23T08:22:01.292Z,99.90
2019-02-23T08:24:30.328Z,99.90
2019-02-23T08:26:59.532Z,99.90
2019-02-23T08:29:28.524Z,99.90
2019-02-23T08:31:57.644Z,99.90
2019-02-23T08:34:26.607Z,99.90
2019-02-23T08:39:24.469Z,99.90
2019-02-23T08:41:53.520Z,99.90
2019-02-23T08:44:22.933Z,99.90
2019-02-23T08:46:51.960Z,99.90
2019-02-23T08:49:20.853Z,99.90
2019-02-23T08:51:49.860Z,99.90
2019-02-23T08:56:47.365Z,99.90
2019-02-23T08:59:16.327Z,99.90
2019-02-23T09:01:45.848Z,99.90
2019-02-23T09:04:14.832Z,99.90
2019-02-23T09:06:43.927Z,99.90
2019-02-23T09:09:13.158Z,99.90
2019-02-23T09:11:42.129Z,99.90
2019-02-23T09:14:11.405Z,99.90
2019-02-23T09:16:40.509Z,99.90
2019-02-23T10:33:11.950Z,95.50
2019-02-23T10:39:06.153Z,96.00
2019-02-23T10:47:58.101Z,94.30
2019-02-23T10:50:38.629Z,93.50
2019-02-23T10:53:19.373Z,94.30
2019-02-23T11:07:54.169Z,92.20
2019-02-23T11:22:43.186Z,82.90
2019-02-23T11:37:33.091Z,68.00
2019-02-23T11:40:12.345Z,64.20
2019-02-23T12:03:28.285Z,39.60
2019-02-23T12:15:03.792Z,40.60
2019-02-23T12:20:44.984Z,46.20
2019-02-23T12:23:26.246Z,48.30
2019-02-23T12:29:05.659Z,46.20
2019-02-23T12:37:57.402Z,44.60
2019-02-23T13:04:04.595Z,41.80
2019-02-23T13:09:58.516Z,43.50
2019-02-23T13:12:39.553Z,40.90
2019-02-23T13:15:39.187Z,40.30
2019-02-23T13:21:40.446Z,39.50
2019-02-23T13:24:47.858Z,38.80
2019-02-23T13:27:41.335Z,39.90
2019-02-23T13:33:36.593Z,39.40
2019-02-23T13:36:44.081Z,38.40
2019-02-23T13:39:51.461Z,37.00
2019-02-23T13:42:32.301Z,37.40
2019-02-23T14:00:06.559Z,34.70
2019-02-23T14:02:47.633Z,35.70
2019-02-23T14:20:35.088Z,36.40
2019-02-23T14:26:28.630Z,36.90
2019-02-23T14:32:07.841Z,35.10
2019-02-23T14:38:02.419Z,34.80
2019-02-23T14:46:54.533Z,34.90
2019-02-23T14:52:35.304Z,36.10
2019-02-23T14:55:15.951Z,34.90
2019-02-23T15:06:52.502Z,34.30
2019-02-23T15:09:33.154Z,33.50
2019-02-23T15:21:10.657Z,33.10
2019-02-23T15:23:51.850Z,33.50
2019-02-23T15:35:27.789Z,33.40
2019-02-23T15:41:21.785Z,34.00
2019-02-23T15:44:02.368Z,35.60
2019-02-23T15:47:18.068Z,34.00
2019-02-23T15:49:47.167Z,34.40
2019-02-23T15:52:19.113Z,35.70
2019-02-23T15:54:48.225Z,33.50
2019-02-23T15:57:17.306Z,34.40
2019-02-23T15:59:46.424Z,34.60
2019-02-23T16:02:15.479Z,34.50
2019-02-23T16:04:44.549Z,34.00
2019-02-23T16:07:13.507Z,34.00
2019-02-23T16:09:42.539Z,34.60
2019-02-23T16:12:11.516Z,34.80
2019-02-23T16:14:40.583Z,35.90
2019-02-23T16:17:09.960Z,36.50
2019-02-23T16:19:38.946Z,35.20
2019-02-23T16:22:09.546Z,35.10
2019-02-23T16:24:38.647Z,33.30
2019-02-23T16:27:07.677Z,33.20
2019-02-23T16:29:38.950Z,32.90
2019-02-23T16:32:07.730Z,33.30
2019-02-23T16:34:36.811Z,36.90
2019-02-23T16:37:05.942Z,39.60
2019-02-23T16:39:35.016Z,41.40
2019-02-23T16:42:04.120Z,41.80
2019-02-23T16:44:33.142Z,42.10
2019-02-23T16:47:02.157Z,42.70
2019-02-23T16:49:31.169Z,43.20
2019-02-23T16:52:00.267Z,42.70
2019-02-23T16:54:29.431Z,42.90
2019-02-23T16:56:58.561Z,43.30
2019-02-23T16:59:27.654Z,43.80
2019-02-23T17:01:56.776Z,42.50
2019-02-23T17:04:25.859Z,42.40
2019-02-23T17:06:54.978Z,42.40
2019-02-23T17:09:25.630Z,43.00
2019-02-23T17:11:54.753Z,43.50
2019-02-23T17:14:23.826Z,43.40
2019-02-23T17:16:53.133Z,44.10
2019-02-23T17:19:22.201Z,44.50
2019-02-23T17:21:51.380Z,45.00
2019-02-23T17:24:20.540Z,45.80
2019-02-23T17:26:49.623Z,45.10
2019-02-23T17:29:18.733Z,45.30
2019-02-23T17:31:47.804Z,45.00
2019-02-23T17:34:16.901Z,45.40
2019-02-23T17:36:46.105Z,44.10
2019-02-23T17:39:15.309Z,45.20
2019-02-23T17:41:44.377Z,45.80
2019-02-23T17:44:13.500Z,46.10
2019-02-23T17:46:42.490Z,46.20
2019-02-23T17:49:11.566Z,46.30
2019-02-23T17:51:40.656Z,47.30
2019-02-23T17:54:09.758Z,46.40
2019-02-23T17:56:38.861Z,46.60
2019-02-23T17:59:07.909Z,43.80
2019-02-23T18:01:37.041Z,44.90
2019-02-23T18:04:06.097Z,43.50
2019-02-23T18:06:35.153Z,43.60
2019-02-23T18:09:04.292Z,44.50
2019-02-23T18:11:33.335Z,46.00
2019-02-23T18:14:03.829Z,44.10
2019-02-23T18:16:32.873Z,45.00
2019-02-23T18:19:01.962Z,43.60
2019-02-23T18:21:31.049Z,44.60
2019-02-23T18:24:00.065Z,44.70
2019-02-23T18:26:29.332Z,43.80
2019-02-23T18:28:58.465Z,43.40
2019-02-23T18:31:27.532Z,43.20
2019-02-23T18:33:56.548Z,43.50
2019-02-23T18:36:25.640Z,44.10
2019-02-23T18:38:54.838Z,43.70
2019-02-23T18:41:23.812Z,43.50
2019-02-23T18:43:53.332Z,43.60
2019-02-23T18:46:22.424Z,43.10
2019-02-23T18:48:51.460Z,43.50
2019-02-23T18:51:20.451Z,43.90
2019-02-23T18:53:49.532Z,44.10
2019-02-23T18:56:18.638Z,45.70
2019-02-23T18:58:47.745Z,45.80
2019-02-23T19:01:16.898Z,45.50
2019-02-23T19:03:45.941Z,46.20
2019-02-23T19:08:43.617Z,44.90
2019-02-23T19:11:12.626Z,44.40
2019-02-23T19:13:41.752Z,45.40
2019-02-23T19:16:10.958Z,44.80
2019-02-23T19:18:40.293Z,46.30
2019-02-23T19:21:09.385Z,46.70
2019-02-23T19:26:07.022Z,46.40
2019-02-23T19:28:43.085Z,45.50
2019-02-23T19:31:07.734Z,45.00
2019-02-23T19:33:36.876Z,45.20
2019-02-23T19:36:05.927Z,46.00
2019-02-23T19:38:35.077Z,45.60
2019-02-23T19:41:04.174Z,45.70
2019-02-23T19:43:33.225Z,45.30
2019-02-23T19:46:02.281Z,46.70
2019-02-23T19:48:31.274Z,45.70
2019-02-23T19:51:04.729Z,45.70
2019-02-23T19:53:33.960Z,45.90
2019-02-23T19:56:03.392Z,46.20
2019-02-23T19:58:32.480Z,46.10
2019-02-23T20:01:01.989Z,45.50
2019-02-23T20:03:31.076Z,45.90
2019-02-23T20:06:00.163Z,45.80
2019-02-23T20:08:29.329Z,46.10
2019-02-23T20:10:58.334Z,46.40
2019-02-23T20:13:27.326Z,46.00
2019-02-23T20:15:56.507Z,47.30
2019-02-23T20:18:25.596Z,51.00
2019-02-23T20:20:54.641Z,49.30
2019-02-23T20:23:23.746Z,47.70
2019-02-23T20:25:52.931Z,47.50
2019-02-23T20:28:22.010Z,47.20
2019-02-23T20:30:51.105Z,47.90
2019-02-23T20:35:48.756Z,46.80
2019-02-23T20:38:17.732Z,47.00
2019-02-23T20:40:46.881Z,47.70
2019-02-23T20:43:15.797Z,45.40
2019-02-23T20:45:44.890Z,45.30
2019-02-23T20:48:14.135Z,44.40
2019-02-23T20:50:43.320Z,44.20
2019-02-23T20:53:12.460Z,44.50
2019-02-23T20:55:41.557Z,43.60
2019-02-23T21:00:39.168Z,43.40
2019-02-23T21:03:10.163Z,44.00
2019-02-23T21:05:39.240Z,43.80
2019-02-23T21:08:08.357Z,43.60
2019-02-23T21:10:37.519Z,43.60
2019-02-23T21:13:06.617Z,41.60
2019-02-23T21:15:35.699Z,41.80
2019-02-23T21:18:04.778Z,41.60
2019-02-23T21:20:33.780Z,41.00
2019-02-23T21:23:02.911Z,40.60
2019-02-23T21:25:32.108Z,39.70
2019-02-23T21:28:01.157Z,39.50
2019-02-23T21:30:30.464Z,40.80
2019-02-23T21:35:28.212Z,38.90
2019-02-23T21:37:57.278Z,38.70
2019-02-23T21:40:26.373Z,38.80
2019-02-23T22:10:45.481Z,38.80
2019-02-23T22:13:14.537Z,38.50
2019-02-23T22:15:43.582Z,37.40
2019-02-23T22:18:12.669Z,38.30
2019-02-23T22:20:42.124Z,37.90
2019-02-23T22:23:11.262Z,39.20
2019-02-23T22:25:40.269Z,37.60
2019-02-23T22:28:09.340Z,37.20
2019-02-23T22:30:38.458Z,36.40
2019-02-23T22:38:05.082Z,38.90
2019-02-23T22:43:02.715Z,36.90
2019-02-23T22:45:31.863Z,37.20
2019-02-23T22:48:00.911Z,35.90
2019-02-23T22:52:58.528Z,36.40
2019-02-23T22:55:27.570Z,37.60
2019-02-23T22:57:56.635Z,36.50
2019-02-23T23:00:30.508Z,35.80
2019-02-23T23:05:28.021Z,36.10
2019-02-23T23:07:57.016Z,35.50
2019-02-23T23:10:26.144Z,36.60
2019-02-23T23:12:55.202Z,38.20
2019-02-23T23:15:24.180Z,38.30
2019-02-23T23:17:53.224Z,36.60
2019-02-23T23:20:22.252Z,37.80
2019-02-23T23:22:51.245Z,36.90
2019-02-23T23:25:20.310Z,36.70
2019-02-23T23:27:49.681Z,35.80
2019-02-23T23:30:18.881Z,35.80
2019-02-23T23:32:47.888Z,35.20
2019-02-23T23:37:45.424Z,39.20
2019-02-23T23:40:14.369Z,38.60
2019-02-23T23:42:43.469Z,38.50
2019-02-23T23:45:12.452Z,40.20
2019-02-23T23:47:42.424Z,39.90
2019-02-23T23:52:40.162Z,38.20
2019-02-23T23:55:09.196Z,40.80
2019-02-23T23:57:38.192Z,41.10
